KBBW/BBW METAR and TAF weather

Enter ICAO airport designator
Station Type Date Time Source
KBBW METAR 2024/04/18 07:20 UTC NOAA

KBBW 180720Z AUTO 35018G26KT 7SM RA BKN007 BKN037 OVC050 02/02 A3008 RMK AO2 PK WND 35027/0705 LTG DSNT E AND SW P0002 T00170017 $


Station Type Date Time Source
KBBW Decoded METAR 2024/04/18 07:20 UTC NOAA

BROKEN BOW MUNICIPAL AIRPORT, NE, United States (KBBW) 41-26N 099-38W
Apr 18, 2024 - 03:20 AM EDT / 2024.04.18 0720 UTC
Wind: from the N (350 degrees) at 21 MPH (18 KT) gusting to 30 MPH (26 KT):0
Visibility: 7 mile(s):0
Sky conditions: overcast
Weather: rain; Lightning observed
Precipitation last hour: 0.02 inches
Temperature: 35.1 F (1.7 C)
Dew Point: 35.1 F (1.7 C)
Relative Humidity: 100%
Pressure (altimeter): 30.08 in. Hg (1018 hPa)
ob: KBBW 180720Z AUTO 35018G26KT 7SM RA BKN007 BKN037 OVC050 02/02 A3008 RMK AO2 PK WND 35027/0705 LTG DSNT E AND SW P0002 T00170017
cycle: 7

Station Type Date Time Source
KBBW TAF UTC NOAA

Error!

Example: see airport list